Pinebluff, North Carolina
Current Conditions -  °F | °C
As of 5:21 PM on Sunday 23 Nov 2014 (Local Time) from KHFF Reporting Station
Light Rain Light Rain  
Wind Chill: 15°   Ceiling: 300
Heat Index: 15°   Visibility: 3mi
Dew Point: 15°   Wind: 9mph
Humidity: 100%   Direction: 110°ESE
Pressure: 29.92"   Gusts: NA
Location:  35.11°N, 79.47°W
Report Text: KHFF 232221Z AUTO 11008KT 3SM -RA BR OVC003 15/15 A2992 RMK AO2
Loading
Personal Weather Stations






























Interactive Weather Map New forecast layout! Learn more

10-Day Weather Forecast

Advertisements
Track Severe Weather on mobile